Flight Track Log - Related Links

Times and Time Zones

All times are in EDT time to prevent confusion due to time zone crossing. See the SWA1004 flight status page for this flight to view local times or setup timezone preferences in your user account.

Time Position Orientation Groundspeed Altitude Reporting Facility
EDT Latitude Longitude Course Direction KTS MPH feet Rate Location/Type
Sat 03:44:23 PM 29.6583 -95.2647 349° North 176 203 700  Level Houston Center
Sat 03:45:00 PM 29.6861 -95.2708 349° North 203 234 1,800 1,619 Climbing Houston Center
Sat 03:45:26 PM 29.6958 -95.2897 301° West 189 217 2,400 2,400 Climbing Houston Center
Sat 03:45:55 PM 29.7128 -95.3303 296° West 234 269 4,000 2,323 Climbing Houston Center
Sat 03:46:28 PM 29.7258 -95.3594 297° West 236 272 4,800 2,656 Climbing Houston Center
Sat 03:46:56 PM 29.7472 -95.4103 296° West 286 329 6,700 3,639 Climbing Houston Center
Sat 03:47:29 PM 29.7672 -95.4572 296° West 280 322 8,500 3,224 Climbing Houston Center
Sat 03:48:03 PM 29.7875 -95.5042 296° West 296 341 10,300 2,613 Climbing Houston Center
Sat 03:48:31 PM 29.7961 -95.5461 283° West 295 339 11,200 2,000 Climbing Houston Center
Sat 03:49:03 PM 29.8092 -95.6075 284° West 343 395 12,300 1,967 Climbing Houston Center
Sat 03:49:32 PM 29.8178 -95.6514 283° West 332 382 13,200 2,308 Climbing Houston Center
Sat 03:50:34 PM 29.8425 -95.7642 284° West 358 412 15,800 2,488 Climbing Houston Center
Sat 03:51:35 PM 29.8672 -95.8783 284° West 368 423 18,300 2,000 Climbing Houston Center
Sat 03:52:37 PM 29.8914 -95.9961 283° West 378 435 19,900 1,707 Climbing Houston Center
Sat 03:53:38 PM 29.9519 -96.1156 300° West 402 463 21,800 1,561 Climbing Houston Center
Sat 03:54:40 PM 30.0158 -96.2206 305° West 403 464 23,100 1,317 Climbing Houston Center
Sat 03:55:41 PM 30.0658 -96.3422 295° West 429 494 24,500 1,463 Climbing Houston Center
Sat 03:56:43 PM 30.0917 -96.4703 283° West 416 479 26,100 1,452 Climbing Houston Center
Sat 03:57:45 PM 30.1233 -96.6225 284° West 423 487 27,500 1,122 Climbing Houston Center
Sat 03:58:46 PM 30.1503 -96.7608 283° West 433 498 28,400 1,171 Climbing Houston Center
Sat 03:59:48 PM 30.1789 -96.9000 283° West 440 506 29,900 1,756 Climbing Houston Center
Sat 04:00:49 PM 30.2047 -97.0339 283° West 425 489 32,000 1,512 Climbing Houston Center
Sat 04:01:51 PM 30.2311 -97.1622 283° West 410 472 33,000 878 Climbing Houston Center
Sat 04:02:52 PM 30.2572 -97.2936 283° West 416 479 33,800 488 Climbing Houston Center
Sat 04:03:54 PM 30.2833 -97.4256 283° West 417 480 34,000 98 Climbing Houston Center
Sat 04:04:55 PM 30.3092 -97.5600 283° West 421 484 34,000  Level Houston Center
Sat 04:05:57 PM 30.3342 -97.6928 282° West 417 480 34,000  Level Houston Center
Sat 04:06:58 PM 30.3614 -97.8264 283° West 419 482 34,000 537 Level Houston Center
Sat 04:08:00 PM 30.3858 -97.9578 282° West 414 476 35,100 927 Climbing Houston Center
Sat 04:09:01 PM 30.4103 -98.0858 283° West 405 466 35,900 439 Climbing Houston Center
Sat 04:10:03 PM 30.4386 -98.2375 282° West 408 470 36,000 49 Climbing Houston Center
Sat 04:11:04 PM 30.4633 -98.3694 282° West 413 475 36,000  Level Houston Center
Sat 04:12:06 PM 30.4875 -98.4992 282° West 410 472 36,000  Level Houston Center
Sat 04:13:08 PM 30.5114 -98.6289 282° West 407 468 36,000  Level Houston Center
Sat 04:14:09 PM 30.5358 -98.7589 282° West 408 470 36,000  Level Houston Center
Sat 04:15:11 PM 30.5603 -98.8886 282° West 407 468 36,000  Level Houston Center
Sat 04:16:12 PM 30.5850 -99.0189 282° West 409 471 36,000  Level Houston Center
Sat 04:17:14 PM 30.6100 -99.1542 282° West 408 470 36,000  Level Houston Center
Sat 04:18:15 PM 30.6328 -99.2825 282° West 408 470 36,000  Level Houston Center
Sat 04:19:17 PM 30.6558 -99.4106 282° West 407 468 36,000  Level Houston Center
Sat 04:20:18 PM 30.6789 -99.5389 282° West 408 470 36,000  Level Houston Center
Sat 04:21:20 PM 30.7025 -99.6667 282° West 408 470 36,000  Level Houston Center
Sat 04:22:21 PM 30.7275 -99.8181 281° West 397 457 36,000  Level Houston Center
Sat 04:23:23 PM 30.7497 -99.9453 282° West 403 464 36,000  Level Houston Center
Sat 04:24:25 PM 30.7728 -100.0739 282° West 405 466 36,000  Level Houston Center
Sat 04:25:26 PM 30.7953 -100.2019 282° West 406 467 36,000  Level Houston Center
Sat 04:26:28 PM 30.8169 -100.3294 281° West 403 464 36,000  Level Houston Center
Sat 04:27:29 PM 30.8400 -100.4564 282° West 401 461 36,000  Level Houston Center
Sat 04:28:31 PM 30.8614 -100.5844 281° West 395 455 36,000  Level Houston Center
Sat 04:29:32 PM 30.8875 -100.7431 281° West 416 479 36,000  Level Houston Center
Sat 04:30:34 PM 30.9078 -100.8728 280° West 413 475 36,000  Level Houston Center
Sat 04:31:35 PM 30.9306 -101.0031 282° West 415 478 36,000  Level Houston Center
Sat 04:32:37 PM 30.9519 -101.1325 281° West 410 472 36,000  Level Houston Center
Sat 04:33:39 PM 30.9736 -101.2628 281° West 411 473 36,000  Level Houston Center
Sat 04:34:40 PM 30.9936 -101.3892 280° West 406 467 36,000  Level Houston Center
Sat 04:35:42 PM 31.0192 -101.5467 281° West 407 468 36,000  Level Houston Center
Sat 04:36:43 PM 31.0394 -101.6792 280° West 412 474 36,000  Level Houston Center
Sat 04:37:45 PM 31.0611 -101.8108 281° West 413 475 36,000  Level Houston Center
Sat 04:38:46 PM 31.0819 -101.9436 280° West 414 476 36,000  Level Houston Center
Sat 04:39:48 PM 31.1036 -102.0783 281° West 425 489 36,000  Level Houston Center
Sat 04:40:28 PM 31.1181 -102.1731 280° West 420 483 36,000  Level Albuquerque Center
Sat 04:41:29 PM 31.1381 -102.3061 280° West 417 480 36,000  Level Albuquerque Center
Sat 04:42:30 PM 31.1594 -102.4403 281° West 418 481 36,000  Level Albuquerque Center
Sat 04:43:32 PM 31.1786 -102.5686 280° West 416 479 36,000  Level Albuquerque Center
Sat 04:44:33 PM 31.1986 -102.7025 280° West 416 479 36,000  Level Albuquerque Center
Sat 04:45:35 PM 31.2233 -102.8633 280° West 418 481 36,000  Level Albuquerque Center
Sat 04:46:36 PM 31.2433 -102.9981 280° West 421 484 36,000  Level Albuquerque Center
Sat 04:47:37 PM 31.2631 -103.1331 280° West 421 484 36,000  Level Albuquerque Center
Sat 04:48:39 PM 31.2822 -103.2686 279° West 422 486 36,000  Level Albuquerque Center
Sat 04:49:40 PM 31.3028 -103.4031 280° West 420 483 36,000 -146 Level Albuquerque Center
Sat 04:50:42 PM 31.3217 -103.5378 279° West 420 483 35,700 -634 Descending Albuquerque Center
Sat 04:51:43 PM 31.3367 -103.6733 277° West 421 484 34,700 -829 Descending Albuquerque Center
Sat 04:52:45 PM 31.3553 -103.8100 279° West 416 479 34,000 -341 Descending Albuquerque Center
Sat 04:53:46 PM 31.3725 -103.9428 279° West 414 476 34,000  Level Albuquerque Center
Sat 04:54:48 PM 31.3883 -104.0731 278° West 409 471 34,000  Level Albuquerque Center
Sat 04:55:49 PM 31.4033 -104.2022 278° West 404 465 34,000  Level Albuquerque Center
Sat 04:56:50 PM 31.4231 -104.3583 278° West 405 466 34,000  Level Albuquerque Center
Sat 04:57:52 PM 31.4394 -104.4900 278° West 409 471 34,000  Level Albuquerque Center
Sat 04:58:53 PM 31.4561 -104.6228 278° West 413 475 34,000 -683 Level Albuquerque Center
Sat 04:59:55 PM 31.4708 -104.7575 277° West 417 480 32,600 -2,244 Descending Albuquerque Center
Sat 05:00:56 PM 31.4867 -104.8950 278° West 421 484 29,400 -2,829 Descending Albuquerque Center
Sat 05:01:58 PM 31.5025 -105.0303 278° West 424 488 26,800 -2,683 Descending Albuquerque Center
Sat 05:02:59 PM 31.5200 -105.1842 278° West 414 476 23,900 -2,537 Descending Albuquerque Center
Sat 05:04:01 PM 31.5339 -105.3017 278° West 389 448 21,600 -2,312 Descending Albuquerque Center
Sat 05:04:48 PM 31.5422 -105.4047 275° West 370 426 19,700 -2,260 Descending Albuquerque Center
Sat 05:05:18 PM 31.5481 -105.4581 277° West 364 419 18,700 -1,974 Descending Albuquerque Center
Sat 05:06:04 PM 31.5589 -105.5375 279° West 358 412 17,200 -2,066 Descending Albuquerque Center
Sat 05:06:19 PM 31.5611 -105.5719 274° West 351 404 16,600 -2,164 Descending Albuquerque Center
Sat 05:07:05 PM 31.5717 -105.6481 279° West 346 398 15,000 -2,111 Descending Albuquerque Center
Sat 05:08:07 PM 31.5831 -105.7567 277° West 339 390 12,800 -2,296 Descending Albuquerque Center
Sat 05:08:26 PM 31.5922 -105.8061 282° West 334 384 11,900 -2,164 Descending Albuquerque Center
Sat 05:09:08 PM 31.6161 -105.8561 299° West 334 384 10,600 -1,672 Descending Albuquerque Center
Sat 05:09:27 PM 31.6375 -105.8997 300° West 333 383 10,200 -677 Descending Albuquerque Center
Sat 05:10:10 PM 31.6597 -105.9442 300° West 308 354 9,900 -900 Descending Albuquerque Center
Sat 05:10:27 PM 31.6778 -105.9792 301° West 271 312 9,300 -1,475 Descending Albuquerque Center
Sat 05:11:11 PM 31.7044 -106.0339 300° West 269 310 8,400 -906 Descending Albuquerque Center
Sat 05:12:13 PM 31.7378 -106.1044 299° West 250 288 7,700 -976 Descending Albuquerque Center
Sat 05:13:14 PM 31.7608 -106.1781 290° West 241 277 6,400 -1,008 Descending Albuquerque Center
Sat 05:14:24 PM 31.7872 -106.2617 290° West 231 266 5,500 -683 Descending Albuquerque Center
Sat 05:15:17 PM 31.7981 -106.3039 287° West 168 193 5,000 -730 Descending Albuquerque Center
Sat 05:16:19 PM 31.8011 -106.3583 274° West 149 171 4,100 -871 Descending Albuquerque Center
Sat 05:18:00 PM 31.8000 -106.3667 270° West  Level FlightAware Approximate
Sat 05:25:00 PM 31.8072 -106.3764 270° West  Level Estimated
Sat 05:26:00 PM 31.8072 -106.3764 270° West  Level Estimated
Sat 05:27:00 PM 31.8072 -106.3764 270° West  Level Estimated
Sat 05:28:00 PM 31.8072 -106.3764 270° West  Level Estimated

Login

Don't have an account? Register now (free) for customized features, flight alerts, and more!